Flight Track Log - Related Links

Times and Time Zones

All times are in EDT time to prevent confusion due to time zone crossing. See the RPA3228 flight status page for this flight to view local times or setup timezone preferences in your user account.

Time Position Orientation Groundspeed Altitude Reporting Facility
EDT Latitude Longitude Course Direction KTS MPH feet Rate Location/Type
Tue 10:36:11 AM 38.9000 -77.0833 339° North 200 230 2,700  Level Potomac TRACON
Tue 10:37:00 AM 39.1411 -77.1850 330° Northwest  Level FlightAware Approximate
Tue 10:37:11 AM 38.9500 -77.1500 314° West 265 305 5,800  Level Potomac TRACON
Tue 10:38:00 AM 39.2427 -77.2385 337° Northwest  Level FlightAware Approximate
Tue 10:38:11 AM 39.0000 -77.2167 314° West 278 320 9,200  Level Potomac TRACON
Tue 10:39:00 AM 39.3445 -77.2950 337° Northwest  Level FlightAware Approximate
Tue 10:39:11 AM 39.0167 -77.3167 282° West 303 349 11,800  Level Potomac TRACON
Tue 10:40:00 AM 39.4447 -77.3557 339° North  Level FlightAware Approximate
Tue 10:40:12 AM 39.0500 -77.4333 290° West 358 412 14,400  Level Potomac TRACON
Tue 10:41:00 AM 39.5409 -77.4038 339° North  Level FlightAware Approximate
Tue 10:42:04 AM 39.1964 -77.4903 343° North 346 398 17,300  Level Washington Center
Tue 10:44:29 AM 39.4372 -77.4731 North 358 412 22,700 2,126 Climbing New York Center
Tue 10:45:30 AM 39.5419 -77.4642 North 364 419 24,600 1,721 Climbing New York Center
Tue 10:46:31 AM 39.6508 -77.4556 North 376 433 26,200 1,190 Climbing New York Center
Tue 10:47:31 AM 39.7636 -77.4556 360° North 393 452 27,000 454 Climbing New York Center
Tue 10:48:30 AM 39.8783 -77.4531 North 405 466 27,100 504 Climbing New York Center
Tue 10:49:30 AM 39.9931 -77.4883 347° North 405 466 28,000 293 Climbing New York Center
Tue 10:51:34 AM 40.2403 -77.5831 344° North 416 479 28,000  Level Cleveland Center
Tue 10:52:34 AM 40.3519 -77.6242 344° North 422 486 28,000  Level Cleveland Center
Tue 10:53:34 AM 40.4614 -77.6686 343° North 422 486 28,000  Level Cleveland Center
Tue 10:54:34 AM 40.5731 -77.7100 344° North 422 486 28,000  Level Cleveland Center
Tue 10:55:34 AM 40.6867 -77.7544 343° North 422 486 28,000  Level Cleveland Center
Tue 10:56:34 AM 40.8003 -77.7989 344° North 422 486 28,000  Level Cleveland Center
Tue 10:57:34 AM 40.9097 -77.8411 344° North 422 486 28,000  Level Cleveland Center
Tue 10:58:34 AM 41.0233 -77.8803 345° North 422 486 28,000  Level Cleveland Center
Tue 10:59:34 AM 41.1244 -77.9231 342° North 428 493 28,000  Level Cleveland Center
Tue 11:00:34 AM 41.2358 -77.9653 344° North 423 487 28,000 -650 Level Cleveland Center
Tue 11:01:34 AM 41.3475 -78.0108 343° North 423 487 26,700 -1,000 Descending Cleveland Center
Tue 11:02:34 AM 41.4547 -78.0508 344° North 418 481 26,000 -350 Descending Cleveland Center
Tue 11:03:34 AM 41.5597 -78.0939 343° North 406 467 26,000  Level Cleveland Center
Tue 11:04:34 AM 41.6650 -78.1344 344° North 400 460 26,000 -750 Level Cleveland Center
Tue 11:05:34 AM 41.7681 -78.1750 344° North 395 455 24,500 -1,800 Descending Cleveland Center
Tue 11:06:34 AM 41.8731 -78.2183 343° North 395 455 22,400 -2,050 Descending Cleveland Center
Tue 11:07:34 AM 41.9783 -78.2619 343° North 389 448 20,400 -2,000 Descending Cleveland Center
Tue 11:08:34 AM 42.0769 -78.3006 344° North 383 441 18,400 -1,950 Descending Cleveland Center
Tue 11:09:34 AM 42.1653 -78.3364 343° North 378 435 16,500 -1,950 Descending Cleveland Center
Tue 11:10:34 AM 42.2703 -78.3775 344° North 366 421 14,500 -1,900 Descending Cleveland Center
Tue 11:11:34 AM 42.3606 -78.4139 343° North 356 410 12,700 -1,750 Descending Cleveland Center
Tue 11:12:34 AM 42.4489 -78.4475 344° North 338 389 11,000 -1,350 Descending Cleveland Center
Tue 11:13:34 AM 42.5267 -78.4814 342° North 318 366 10,000 -1,450 Descending Cleveland Center
Tue 11:14:34 AM 42.5978 -78.5072 345° North 285 328 8,100 -1,850 Descending Cleveland Center
Tue 11:15:34 AM 42.6714 -78.5386 343° North 273 314 6,300 -2,000 Descending Cleveland Center
Tue 11:16:34 AM 42.7489 -78.5589 349° North 263 303 4,100 -1,100 Descending Cleveland Center
Tue 11:17:34 AM 42.8219 -78.5706 353° North 263 303 4,100 -200 Level Cleveland Center
Tue 11:18:34 AM 42.8925 -78.5542 10° North 251 289 3,700 -550 Descending Cleveland Center
Tue 11:19:34 AM 42.9486 -78.5411 10° North 241 277 3,000 -700 Descending Cleveland Center

Login

Don't have an account? Register now (free) for customized features, flight alerts, and more!